Time;durP1;ratioP1;P1;durP2;ratioP2;P2;SDS_P1;SDS_P2;PMS_P1;PMS_P2;Temp;Humidity;BMP_temperature;BMP_pressure;BME280_temperature;BME280_humidity;BME280_pressure;Samples;Min_cycle;Max_cycle;Signal;HPM_P1;HPM_P2
2021/12/24 00:00:51;;;;;;;31.40;15.23;;;;;;;-2.97;94.49;98611.72;5113188;28;20055;-78
2021/12/24 00:03:19;;;;;;;36.95;16.92;;;;;;;-2.90;94.04;98601.84;5108232;28;20047;-78
2021/12/24 00:05:46;;;;;;;30.27;15.27;;;;;;;-2.98;94.37;98601.16;5112245;28;20039;-78
2021/12/24 00:08:14;;;;;;;31.85;15.18;;;;;;;-3.10;95.17;98587.31;5112845;28;20040;-79
2021/12/24 00:10:43;;;;;;;32.45;15.20;;;;;;;-2.94;94.41;98584.31;5112837;28;20051;-79
2021/12/24 00:13:14;;;;;;;33.85;16.65;;;;;;;-2.92;94.76;98574.59;5102983;28;20062;-78
2021/12/24 00:16:02;;;;;;;29.25;14.77;;;;;;;-2.96;94.71;98576.44;5102222;28;20036;-78
2021/12/24 00:18:38;;;;;;;31.08;15.88;;;;;;;-2.95;94.36;98572.91;5114512;28;20462;-78
2021/12/24 00:37:36;;;;;;;30.80;15.05;;;;;;;-2.86;94.58;98539.25;5100472;28;19927;-78
2021/12/24 00:40:11;;;;;;;28.48;13.40;;;;;;;-3.03;95.19;98535.22;5116664;28;20040;-79
2021/12/24 00:42:43;;;;;;;31.67;15.75;;;;;;;-2.99;95.37;98528.94;5099119;28;20048;-80
2021/12/24 00:45:11;;;;;;;33.38;16.05;;;;;;;-2.94;95.08;98519.16;5117226;28;20505;-79
2021/12/24 00:47:41;;;;;;;34.03;15.77;;;;;;;-2.97;94.27;98513.06;5096742;27;20523;-80
2021/12/24 00:50:13;;;;;;;34.67;16.50;;;;;;;-2.95;94.64;98511.25;5107961;28;20052;-80
2021/12/24 00:52:50;;;;;;;33.38;16.60;;;;;;;-3.02;94.75;98507.88;5096693;28;20488;-79
2021/12/24 00:55:18;;;;;;;39.00;17.35;;;;;;;-3.03;95.20;98506.16;5101941;28;20051;-80
2021/12/24 00:57:47;;;;;;;30.13;14.85;;;;;;;-2.89;94.53;98497.03;5096190;27;20428;-79
2021/12/24 01:00:17;;;;;;;32.17;15.73;;;;;;;-3.03;95.63;98490.28;5108311;27;20044;-79
2021/12/24 01:02:47;;;;;;;29.60;14.07;;;;;;;-2.96;95.34;98491.88;5099114;27;20497;-79
2021/12/24 01:05:15;;;;;;;29.70;14.10;;;;;;;-3.10;95.30;98493.94;5097951;28;20047;-79
2021/12/24 01:07:44;;;;;;;28.05;14.25;;;;;;;-3.09;95.46;98490.41;5096885;28;20113;-79
2021/12/24 01:10:14;;;;;;;29.65;14.52;;;;;;;-3.00;95.86;98473.50;5108201;27;20044;-79
2021/12/24 01:12:41;;;;;;;28.75;14.35;;;;;;;-3.07;96.54;98463.06;5100466;27;20039;-80
2021/12/24 01:15:10;;;;;;;34.60;14.90;;;;;;;-2.98;95.54;98463.75;5100969;27;20469;-80
2021/12/24 01:17:43;;;;;;;30.35;14.32;;;;;;;-3.06;95.31;98458.63;5095385;28;20050;-79
2021/12/24 01:20:22;;;;;;;38.10;15.32;;;;;;;-3.11;95.80;98453.47;5105756;27;20040;-79
2021/12/24 01:25:51;;;;;;;27.85;13.90;;;;;;;-2.87;95.03;98447.66;5048564;28;20053;-79
2021/12/24 01:39:25;;;;;;;26.77;13.43;;;;;;;-3.00;95.72;98395.09;5047619;28;20045;-78
2021/12/24 01:44:39;;;;;;;28.98;13.77;;;;;;;-2.84;95.12;98410.56;5053569;28;20040;-78
2021/12/24 01:47:08;;;;;;;27.58;12.65;;;;;;;-2.85;95.26;98398.25;5051134;28;20048;-77
2021/12/24 01:49:36;;;;;;;29.67;12.65;;;;;;;-2.94;95.53;98384.38;5051650;28;20088;-78
2021/12/24 01:52:06;;;;;;;27.85;13.05;;;;;;;-2.87;95.21;98371.84;5044564;28;20099;-78
2021/12/24 01:54:34;;;;;;;26.08;11.98;;;;;;;-2.91;95.07;98365.81;5048127;28;20063;-79
2021/12/24 01:57:02;;;;;;;26.20;12.82;;;;;;;-2.86;94.89;98376.22;5052259;28;20048;-78
2021/12/24 01:59:29;;;;;;;26.60;12.93;;;;;;;-2.97;95.47;98375.66;5065027;28;20056;-79
2021/12/24 02:01:57;;;;;;;25.98;13.10;;;;;;;-2.96;94.80;98367.69;5103091;27;20629;-78
2021/12/24 02:04:24;;;;;;;26.05;13.38;;;;;;;-2.91;95.97;98349.94;5098467;28;20040;-79
2021/12/24 02:06:52;;;;;;;29.48;13.32;;;;;;;-3.10;96.44;98346.00;5095004;28;20036;-79
2021/12/24 02:09:21;;;;;;;25.63;12.70;;;;;;;-2.93;95.39;98358.81;5102646;28;20066;-78
2021/12/24 02:11:48;;;;;;;26.05;12.52;;;;;;;-2.90;95.57;98361.38;5099484;28;20043;-78
2021/12/24 02:14:21;;;;;;;26.20;13.27;;;;;;;-2.91;95.10;98354.34;5098278;27;20043;-79
2021/12/24 02:28:21;;;;;;;28.83;13.10;;;;;;;-3.06;96.62;98305.41;5096083;27;20052;-78
2021/12/24 02:30:49;;;;;;;26.10;12.90;;;;;;;-3.00;95.98;98299.09;5108453;28;20051;-78
2021/12/24 02:33:18;;;;;;;24.08;12.20;;;;;;;-3.07;96.43;98296.63;5100254;27;20047;-78
2021/12/24 02:35:45;;;;;;;26.05;12.65;;;;;;;-2.82;95.15;98293.34;5099688;28;20040;-78
2021/12/24 02:38:15;;;;;;;24.75;12.07;;;;;;;-3.02;96.18;98285.94;5095602;27;20065;-79
2021/12/24 02:40:42;;;;;;;23.33;11.80;;;;;;;-2.95;96.18;98287.50;5111437;28;20404;-79
2021/12/24 02:43:14;;;;;;;25.65;12.73;;;;;;;-2.97;96.32;98264.66;5103859;28;20048;-78
2021/12/24 02:45:43;;;;;;;25.67;12.65;;;;;;;-3.05;96.19;98259.59;5098492;28;20048;-78
2021/12/24 02:48:35;;;;;;;23.83;11.77;;;;;;;-3.00;96.74;98257.69;5097982;27;20040;-78
2021/12/24 02:53:57;;;;;;;25.23;12.57;;;;;;;-2.90;95.98;98263.59;5095832;28;20044;-78
2021/12/24 02:56:28;;;;;;;25.48;11.50;;;;;;;-2.89;95.42;98253.91;5101519;27;20039;-78
2021/12/24 02:58:57;;;;;;;27.92;13.25;;;;;;;-2.91;95.71;98253.94;5102490;28;20039;-78
2021/12/24 03:01:26;;;;;;;26.35;11.45;;;;;;;-2.97;95.80;98232.97;5106114;28;20484;-78
2021/12/24 03:03:54;;;;;;;26.15;12.85;;;;;;;-3.03;95.65;98228.72;5101281;28;20381;-78
2021/12/24 03:06:23;;;;;;;25.90;12.10;;;;;;;-2.93;95.89;98230.19;5100497;28;20043;-78
2021/12/24 03:08:53;;;;;;;23.77;11.77;;;;;;;-3.02;95.45;98226.94;5106890;28;20489;-78
2021/12/24 03:11:21;;;;;;;26.20;12.38;;;;;;;-3.02;96.24;98213.72;5104710;28;20040;-78
2021/12/24 03:13:49;;;;;;;26.17;12.32;;;;;;;-2.95;96.25;98218.81;5093168;28;20047;-77
2021/12/24 03:16:17;;;;;;;27.48;13.15;;;;;;;-2.96;95.89;98225.00;5093689;28;20052;-77
2021/12/24 03:18:46;;;;;;;25.83;12.07;;;;;;;-2.96;95.91;98222.38;5093606;28;20047;-78
2021/12/24 03:21:17;;;;;;;25.35;12.27;;;;;;;-3.00;95.88;98215.44;5096593;28;20469;-78
2021/12/24 03:24:33;;;;;;;26.38;11.40;;;;;;;-3.04;96.11;98219.06;5097661;28;20093;-78
2021/12/24 03:26:36;;;;;;;23.45;11.68;;;;;;;-3.10;95.72;98198.06;5093911;27;20044;-78
2021/12/24 03:29:04;;;;;;;22.48;11.70;;;;;;;-2.96;95.97;98192.41;5095817;28;20409;-79
2021/12/24 03:31:32;;;;;;;23.85;12.07;;;;;;;-3.12;96.58;98184.03;5101708;28;20048;-78
2021/12/24 03:34:00;;;;;;;24.48;11.95;;;;;;;-3.08;96.16;98178.66;5093369;28;20047;-79
2021/12/24 03:36:27;;;;;;;26.13;12.27;;;;;;;-3.12;95.51;98184.03;5096148;28;20040;-79
2021/12/24 03:38:55;;;;;;;26.40;12.68;;;;;;;-3.17;96.73;98164.81;5093971;28;20051;-78
2021/12/24 03:41:23;;;;;;;26.40;11.88;;;;;;;-3.12;96.55;98158.50;5104733;28;20036;-79
2021/12/24 03:43:53;;;;;;;25.75;11.90;;;;;;;-3.08;96.15;98167.19;5092948;28;20405;-79
2021/12/24 03:46:29;;;;;;;23.05;11.52;;;;;;;-2.98;95.71;98168.69;5096881;28;20477;-78
2021/12/24 03:49:00;;;;;;;24.83;11.82;;;;;;;-2.96;95.86;98164.22;5103553;28;20462;-78
2021/12/24 03:51:38;;;;;;;23.92;11.65;;;;;;;-3.02;95.22;98159.13;5096902;28;20416;-79
2021/12/24 03:56:53;;;;;;;22.55;11.45;;;;;;;-2.95;95.68;98141.28;5070448;28;20061;-79
2021/12/24 03:59:23;;;;;;;26.67;11.50;;;;;;;-2.91;94.79;98140.31;5059292;28;20168;-79
2021/12/24 04:01:50;;;;;;;26.77;11.43;;;;;;;-2.99;95.42;98131.72;5069908;28;20048;-79
2021/12/24 04:04:18;;;;;;;23.05;11.82;;;;;;;-3.01;95.23;98138.84;5070503;28;20059;-79
2021/12/24 04:06:47;;;;;;;25.98;11.43;;;;;;;-2.96;94.79;98124.59;5068024;28;20057;-79
2021/12/24 04:09:14;;;;;;;24.33;11.77;;;;;;;-2.95;94.44;98105.19;5069938;28;20049;-79
2021/12/24 04:11:42;;;;;;;22.80;11.27;;;;;;;-2.99;95.09;98100.91;5069071;28;20056;-79
2021/12/24 04:14:09;;;;;;;23.00;11.65;;;;;;;-3.00;95.29;98093.00;5070476;28;20052;-80
2021/12/24 04:16:38;;;;;;;23.65;11.57;;;;;;;-3.04;95.24;98097.53;5069811;28;20105;-79
2021/12/24 04:19:24;;;;;;;23.30;11.73;;;;;;;-3.04;95.04;98092.25;5058948;28;20049;-80
2021/12/24 04:27:22;;;;;;;21.55;11.63;;;;;;;-3.01;95.26;98078.94;5054976;28;20064;-79
2021/12/24 04:29:50;;;;;;;25.88;12.30;;;;;;;-2.98;94.87;98076.22;5064170;28;20068;-80
2021/12/24 04:32:22;;;;;;;26.63;12.77;;;;;;;-3.00;95.83;98071.88;5065847;28;20048;-80
2021/12/24 04:34:52;;;;;;;22.45;11.75;;;;;;;-3.04;95.20;98057.03;5091600;28;20576;-78
2021/12/24 04:51:17;;;;;;;;;;;;;;;-3.02;95.09;98053.44;5094769;27;20163;-79
2021/12/24 05:02:08;;;;;;;24.65;11.20;;;;;;;-2.96;94.75;98055.00;5101451;28;20039;-78
2021/12/24 05:04:48;;;;;;;20.85;10.90;;;;;;;-3.20;95.36;98055.69;5107687;28;20047;-78
2021/12/24 05:07:33;;;;;;;23.73;12.20;;;;;;;-3.05;94.71;98053.53;5097905;27;20096;-78
2021/12/24 05:10:00;;;;;;;69.15;36.85;;;;;;;-3.01;95.04;98060.47;5098809;28;20058;-78
2021/12/24 05:12:29;;;;;;;36.83;20.60;;;;;;;-2.95;94.79;98051.47;5100908;28;20040;-78
2021/12/24 05:14:58;;;;;;;25.63;13.38;;;;;;;-2.91;94.38;98056.63;5103157;28;20048;-78
2021/12/24 05:17:31;;;;;;;33.22;18.13;;;;;;;-3.00;94.60;98042.81;5096067;27;20427;-78
2021/12/24 05:22:45;;;;;;;24.75;12.40;;;;;;;-3.12;95.29;98025.53;5096024;28;20040;-77
2021/12/24 05:25:13;;;;;;;27.38;13.40;;;;;;;-3.18;95.03;98013.41;5098803;28;20054;-78
2021/12/24 05:27:40;;;;;;;25.83;11.77;;;;;;;-2.95;95.12;98020.63;5095969;28;20047;-79
2021/12/24 05:30:08;;;;;;;24.05;11.73;;;;;;;-3.03;95.14;98014.72;5098862;28;21229;-79
2021/12/24 05:32:37;;;;;;;23.50;12.00;;;;;;;-2.81;93.56;98001.72;5103863;28;20040;-78
2021/12/24 05:35:07;;;;;;;24.60;12.68;;;;;;;-2.96;94.37;98004.81;5096302;28;20127;-78
2021/12/24 05:37:34;;;;;;;24.15;12.45;;;;;;;-3.22;94.68;97995.94;5095328;27;20047;-77
2021/12/24 05:40:02;;;;;;;25.83;13.30;;;;;;;-3.03;94.00;97988.31;5103323;28;20055;-78
2021/12/24 05:42:31;;;;;;;24.67;12.38;;;;;;;-2.91;94.04;97987.91;5104817;28;20374;-78
2021/12/24 05:45:03;;;;;;;22.52;11.38;;;;;;;-3.11;94.94;97980.59;5096019;28;20568;-78
2021/12/24 05:47:50;;;;;;;26.10;12.77;;;;;;;-2.93;94.40;97991.50;5096767;28;20047;-78
2021/12/24 05:50:19;;;;;;;26.15;12.65;;;;;;;-3.18;94.33;97987.00;5101349;28;20039;-78
2021/12/24 05:52:47;;;;;;;23.67;12.13;;;;;;;-3.08;94.28;97982.28;5108132;28;20051;-78
2021/12/24 05:55:14;;;;;;;24.08;11.05;;;;;;;-2.95;94.34;97977.47;5108306;28;20504;-79
2021/12/24 05:57:42;;;;;;;26.20;12.45;;;;;;;-3.03;95.04;97976.84;5097089;27;20093;-77
2021/12/24 06:00:12;;;;;;;26.80;12.70;;;;;;;-2.97;95.66;97974.03;5096682;28;20044;-77
2021/12/24 06:02:39;;;;;;;25.85;12.38;;;;;;;-2.91;95.22;97971.19;5103777;27;20043;-78
2021/12/24 06:05:07;;;;;;;27.00;13.48;;;;;;;-3.00;94.94;97963.56;5103321;28;20050;-77
2021/12/24 06:07:36;;;;;;;28.77;13.77;;;;;;;-3.00;94.60;97963.56;5097925;28;20485;-80
2021/12/24 06:10:04;;;;;;;31.67;15.23;;;;;;;-2.96;95.21;97960.78;5095261;27;20063;-79
2021/12/24 06:12:32;;;;;;;25.80;12.40;;;;;;;-2.91;94.87;97958.84;5105874;28;20051;-77
2021/12/24 06:15:06;;;;;;;32.45;14.98;;;;;;;-3.06;95.72;97944.34;5092309;28;20072;-77
2021/12/24 06:17:36;;;;;;;31.33;13.80;;;;;;;-3.06;95.19;97951.38;5091009;28;20055;-79
2021/12/24 06:20:06;;;;;;;32.45;15.88;;;;;;;-2.96;95.01;97962.53;5091105;28;20587;-77
2021/12/24 06:22:33;;;;;;;42.95;19.20;;;;;;;-2.94;95.24;97968.63;5090436;28;20065;-77
2021/12/24 06:25:02;;;;;;;32.15;17.25;;;;;;;-2.92;95.25;97972.97;5091155;28;20055;-78
2021/12/24 06:27:30;;;;;;;35.58;17.98;;;;;;;-2.83;94.68;97976.22;5094742;28;20090;-77
2021/12/24 06:29:58;;;;;;;28.27;15.70;;;;;;;-2.86;95.09;97971.91;5090990;27;20043;-77
2021/12/24 06:32:25;;;;;;;41.42;22.63;;;;;;;-2.92;94.79;97975.63;5102492;28;20400;-77
2021/12/24 06:34:53;;;;;;;40.15;20.55;;;;;;;-2.93;94.95;97978.28;5094687;28;20072;-78
2021/12/24 06:37:21;;;;;;;57.47;28.33;;;;;;;-2.81;95.68;97987.63;5093899;28;20412;-77
2021/12/24 06:39:48;;;;;;;39.50;20.55;;;;;;;-2.74;95.03;97975.94;5101484;28;20044;-79
2021/12/24 06:42:18;;;;;;;88.45;38.85;;;;;;;-2.81;95.40;97977.03;5102154;28;20044;-77
2021/12/24 06:44:45;;;;;;;76.20;32.63;;;;;;;-2.73;94.89;97963.59;5096803;27;20043;-77
2021/12/24 06:47:13;;;;;;;90.93;35.70;;;;;;;-2.60;94.96;97970.19;5098071;27;20054;-78
2021/12/24 06:49:40;;;;;;;63.00;30.98;;;;;;;-2.77;95.28;97981.31;5100544;28;20048;-77
2021/12/24 06:52:08;;;;;;;42.00;21.35;;;;;;;-2.72;95.01;97966.16;5101666;28;20409;-75
2021/12/24 06:54:36;;;;;;;54.75;27.50;;;;;;;-2.76;95.39;97964.53;5090088;28;20040;-78
2021/12/24 06:57:05;;;;;;;32.30;17.02;;;;;;;-2.73;95.47;97969.72;5094063;27;20044;-75
2021/12/24 06:59:34;;;;;;;127.00;50.20;;;;;;;-2.56;95.09;97961.25;5090460;28;20454;-76
2021/12/24 07:02:01;;;;;;;39.88;19.75;;;;;;;-2.70;95.34;97953.78;5099561;28;20415;-77
2021/12/24 07:04:29;;;;;;;39.40;22.25;;;;;;;-2.64;95.25;97950.94;5090419;28;20097;-76
2021/12/24 07:06:56;;;;;;;39.42;21.02;;;;;;;-2.59;95.02;97945.50;5096991;27;20059;-78
2021/12/24 07:09:24;;;;;;;39.67;20.48;;;;;;;-2.65;95.68;97941.28;5097243;28;20058;-78
2021/12/24 07:11:52;;;;;;;42.85;23.25;;;;;;;-2.61;95.56;97936.75;5102095;28;20108;-77
2021/12/24 07:14:19;;;;;;;37.47;19.98;;;;;;;-2.65;95.77;97941.28;5090424;28;20043;-77
2021/12/24 07:16:48;;;;;;;41.95;22.13;;;;;;;-2.59;96.01;97940.22;5093445;28;20044;-77
2021/12/24 07:19:17;;;;;;;94.70;43.55;;;;;;;-2.68;96.35;97940.53;5089677;28;20101;-77
2021/12/24 07:21:44;;;;;;;48.42;24.33;;;;;;;-2.64;95.64;97937.72;5100326;28;20070;-77
2021/12/24 07:24:12;;;;;;;92.65;32.78;;;;;;;-2.49;95.85;97936.34;5091217;28;20485;-78
2021/12/24 07:26:40;;;;;;;92.20;33.38;;;;;;;-2.51;96.32;97937.31;5094915;28;20066;-79
2021/12/24 07:29:07;;;;;;;122.30;39.50;;;;;;;-2.53;95.86;97923.28;5092225;28;20074;-77
2021/12/24 07:31:35;;;;;;;62.03;25.58;;;;;;;-2.54;96.42;97917.13;5102739;28;20043;-77
2021/12/24 07:34:04;;;;;;;39.70;19.42;;;;;;;-2.49;95.60;97906.41;5107023;28;20382;-77
2021/12/24 07:36:35;;;;;;;61.42;29.38;;;;;;;-2.49;96.14;97914.34;5089770;28;20451;-79
2021/12/24 07:39:05;;;;;;;61.08;26.85;;;;;;;-2.52;95.71;97911.78;5103657;28;20048;-77
2021/12/24 07:41:35;;;;;;;79.85;33.97;;;;;;;-2.44;96.10;97906.25;5106094;28;20051;-77
2021/12/24 07:44:04;;;;;;;90.65;36.53;;;;;;;-2.43;95.69;97903.53;5105950;28;20054;-77
2021/12/24 07:46:38;;;;;;;146.70;49.50;;;;;;;-2.51;96.51;97906.44;5093120;28;20047;-77
2021/12/24 07:49:19;;;;;;;64.65;25.63;;;;;;;-2.30;95.98;97896.03;5098679;28;20048;-77
2021/12/24 07:52:00;;;;;;;131.57;45.75;;;;;;;-2.29;96.74;97888.97;5091135;28;20056;-77
2021/12/24 07:54:29;;;;;;;156.75;61.10;;;;;;;-2.28;96.52;97886.28;5090521;27;20047;-76
2021/12/24 07:56:58;;;;;;;88.93;38.10;;;;;;;-2.33;96.56;97882.94;5092898;28;20044;-77
2021/12/24 07:59:27;;;;;;;64.22;29.38;;;;;;;-2.29;96.90;97873.09;5090182;28;20040;-76
2021/12/24 08:01:56;;;;;;;91.28;36.33;;;;;;;-2.27;96.30;97871.25;5098496;28;20067;-77
2021/12/24 08:04:27;;;;;;;176.35;58.70;;;;;;;-2.17;96.83;97875.31;5091063;28;20119;-78
2021/12/24 08:06:54;;;;;;;73.85;31.52;;;;;;;-2.23;97.15;97870.25;5092170;28;20326;-76
2021/12/24 08:09:22;;;;;;;75.25;32.85;;;;;;;-2.24;97.70;97874.66;5093522;28;20074;-76
2021/12/24 08:11:50;;;;;;;131.02;52.90;;;;;;;-2.08;97.78;97868.81;5097965;28;20043;-76
2021/12/24 08:14:17;;;;;;;118.30;45.85;;;;;;;-2.15;97.55;97873.47;5108941;27;20047;-77
2021/12/24 08:16:45;;;;;;;150.30;56.67;;;;;;;-2.19;97.75;97871.88;5092765;28;20454;-77
2021/12/24 08:19:16;;;;;;;87.13;36.22;;;;;;;-2.20;97.94;97868.34;5096625;28;20083;-76
2021/12/24 08:21:45;;;;;;;125.88;50.35;;;;;;;-2.15;98.12;97867.31;5098240;28;20039;-76
2021/12/24 08:24:13;;;;;;;119.45;47.85;;;;;;;-2.15;97.82;97857.59;5093931;28;20044;-78
2021/12/24 08:26:42;;;;;;;72.35;33.55;;;;;;;-2.10;98.23;97854.78;5092595;28;20408;-76
2021/12/24 08:29:09;;;;;;;59.83;28.48;;;;;;;-2.17;98.23;97845.34;5095625;28;20516;-77
2021/12/24 08:31:37;;;;;;;130.07;53.92;;;;;;;-2.07;98.23;97850.25;5090944;28;20392;-76
2021/12/24 08:34:05;;;;;;;129.43;59.80;;;;;;;-2.06;98.11;97862.56;5090195;28;20052;-76
2021/12/24 08:36:33;;;;;;;79.38;39.63;;;;;;;-2.07;97.87;97854.66;5098149;28;20040;-76
2021/12/24 08:39:05;;;;;;;73.35;34.83;;;;;;;-1.99;98.20;97859.69;5089940;28;20070;-76
2021/12/24 08:41:34;;;;;;;83.55;39.92;;;;;;;-1.99;98.09;97865.84;5095067;28;20047;-76
2021/12/24 08:44:02;;;;;;;64.75;33.03;;;;;;;-1.94;98.45;97858.59;5101515;28;20445;-76
2021/12/24 08:46:30;;;;;;;86.50;45.65;;;;;;;-1.82;97.64;97851.97;5095834;27;20047;-77
2021/12/24 08:48:58;;;;;;;47.17;25.50;;;;;;;-1.93;97.87;97844.44;5092600;28;20412;-78
2021/12/24 08:51:26;;;;;;;57.75;31.25;;;;;;;-1.92;98.07;97838.22;5105334;28;20092;-75
2021/12/24 08:53:57;;;;;;;45.85;23.50;;;;;;;-1.87;98.47;97851.28;5110651;28;20040;-77
2021/12/24 08:56:26;;;;;;;63.85;31.98;;;;;;;-1.86;98.59;97847.69;5106319;28;20480;-78
2021/12/24 08:58:54;;;;;;;43.13;22.05;;;;;;;-1.81;98.04;97852.84;5102663;28;20528;-77
2021/12/24 09:01:21;;;;;;;45.22;23.88;;;;;;;-1.80;98.47;97844.84;5095677;27;20036;-77
2021/12/24 09:03:49;;;;;;;44.83;24.63;;;;;;;-1.86;99.04;97854.78;5100971;28;20036;-77
2021/12/24 09:06:16;;;;;;;52.10;26.42;;;;;;;-1.91;99.02;97850.53;5094825;28;20055;-77
2021/12/24 09:08:44;;;;;;;56.92;29.80;;;;;;;-1.83;98.56;97844.97;5094213;28;20085;-76
2021/12/24 09:11:12;;;;;;;46.00;23.25;;;;;;;-1.86;99.06;97853.00;5096613;27;20036;-75
2021/12/24 09:13:41;;;;;;;48.72;24.75;;;;;;;-1.78;99.05;97852.72;5092848;28;20071;-76
2021/12/24 09:16:09;;;;;;;42.67;23.02;;;;;;;-1.69;99.45;97841.75;5092145;27;20401;-76
2021/12/24 09:18:39;;;;;;;52.88;30.33;;;;;;;-1.71;99.59;97861.28;5101578;28;20069;-78
2021/12/24 09:21:14;;;;;;;49.53;27.60;;;;;;;-1.75;99.53;97864.06;5096232;28;20048;-76
2021/12/24 09:23:43;;;;;;;40.13;21.48;;;;;;;-1.66;99.30;97868.13;5117147;27;20516;-76
2021/12/24 09:26:11;;;;;;;49.63;27.40;;;;;;;-1.71;99.75;97853.34;5097363;28;20483;-77
2021/12/24 09:28:40;;;;;;;40.33;20.83;;;;;;;-1.71;99.31;97854.19;5108792;27;20408;-75
2021/12/24 09:31:08;;;;;;;39.95;21.65;;;;;;;-1.63;99.82;97845.97;5091983;28;20047;-76
2021/12/24 09:33:35;;;;;;;44.00;23.15;;;;;;;-1.58;99.68;97836.06;5103701;27;20046;-75
2021/12/24 09:36:03;;;;;;;53.13;26.25;;;;;;;-1.63;100.00;97832.72;5094273;28;20059;-75
2021/12/24 09:38:30;;;;;;;63.40;33.72;;;;;;;-1.63;100.00;97823.03;5106338;27;20051;-75
2021/12/24 09:40:58;;;;;;;55.25;30.58;;;;;;;-1.61;100.00;97807.94;5076826;28;20271;-76
2021/12/24 09:43:26;;;;;;;46.50;23.42;;;;;;;-1.57;100.00;97799.88;5103192;27;20048;-78
2021/12/24 09:45:55;;;;;;;60.67;29.08;;;;;;;-1.49;100.00;97801.25;5093245;28;20093;-77
2021/12/24 09:48:23;;;;;;;40.67;21.33;;;;;;;-1.51;100.00;97796.97;5100451;28;20039;-78
2021/12/24 09:50:50;;;;;;;36.85;19.88;;;;;;;-1.48;100.00;97787.09;5112401;27;20052;-74
2021/12/24 09:53:18;;;;;;;57.00;27.90;;;;;;;-1.50;100.00;97781.00;5103419;27;20040;-76
2021/12/24 09:55:46;;;;;;;43.53;22.63;;;;;;;-1.37;100.00;97769.94;5091801;28;20036;-75
2021/12/24 09:58:13;;;;;;;39.63;22.45;;;;;;;-1.36;100.00;97776.94;5101003;28;20412;-75
2021/12/24 10:00:41;;;;;;;49.85;23.75;;;;;;;-1.37;100.00;97768.13;5091761;28;20118;-77
2021/12/24 10:03:10;;;;;;;53.45;25.52;;;;;;;-1.41;100.00;97766.53;5108085;27;20047;-82
2021/12/24 10:05:40;;;;;;;62.83;32.03;;;;;;;-1.40;100.00;97764.75;5092024;28;20036;-79
2021/12/24 10:08:10;;;;;;;52.28;28.45;;;;;;;-1.39;100.00;97761.19;5102137;28;20132;-80
2021/12/24 10:10:41;;;;;;;63.85;31.33;;;;;;;-1.39;100.00;97763.84;5095192;28;20048;-76
2021/12/24 10:13:33;;;;;;;39.97;23.00;;;;;;;-1.39;100.00;97769.97;5104279;27;20153;-75
2021/12/24 10:16:02;;;;;;;42.47;23.25;;;;;;;-1.35;100.00;97768.94;5101237;28;20047;-81
2021/12/24 10:18:35;;;;;;;45.90;21.23;;;;;;;-1.32;100.00;97760.84;5104221;27;20112;-80
2021/12/24 10:21:05;;;;;;;48.15;23.17;;;;;;;-1.35;100.00;97752.19;5099735;27;20040;-75
2021/12/24 10:23:49;;;;;;;42.70;23.05;;;;;;;-1.21;100.00;97748.97;5101918;27;20051;-83
2021/12/24 10:26:20;;;;;;;44.63;22.40;;;;;;;-1.25;100.00;97756.16;5105604;27;20043;-72
2021/12/24 10:28:53;;;;;;;49.13;25.42;;;;;;;-1.29;100.00;97749.28;5095630;28;20420;-79
2021/12/24 10:31:22;;;;;;;51.80;25.73;;;;;;;-1.24;100.00;97749.94;5107079;28;20043;-82
2021/12/24 10:34:12;;;;;;;55.05;25.92;;;;;;;-1.19;100.00;97752.41;5100239;28;20044;-80
2021/12/24 10:37:11;;;;;;;116.40;49.88;;;;;;;-1.10;100.00;97748.50;5099259;28;20040;-80
2021/12/24 10:39:42;;;;;;;63.70;32.55;;;;;;;-1.08;100.00;97758.13;5101721;28;20071;-79
2021/12/24 10:42:12;;;;;;;53.13;26.65;;;;;;;-1.06;100.00;97753.59;5111702;27;20053;-78
2021/12/24 10:44:41;;;;;;;51.45;26.55;;;;;;;-1.13;100.00;97751.28;5093289;27;20044;-76
2021/12/24 10:47:13;;;;;;;56.95;27.70;;;;;;;-0.84;100.00;97743.88;5096132;28;20044;-79
2021/12/24 10:50:08;;;;;;;52.92;28.30;;;;;;;-0.98;100.00;97737.41;5096042;27;20109;-78
2021/12/24 10:55:38;;;;;;;57.45;27.35;;;;;;;-0.79;100.00;97742.75;5099434;27;20105;-73
2021/12/24 10:58:08;;;;;;;63.90;30.88;;;;;;;-0.77;100.00;97740.03;5102737;28;20044;-79
2021/12/24 11:00:39;;;;;;;60.08;29.15;;;;;;;-0.75;100.00;97735.50;5092164;28;20257;-80
2021/12/24 11:03:09;;;;;;;60.30;29.92;;;;;;;-0.63;100.00;97727.00;5103854;28;20267;-75
2021/12/24 11:05:41;;;;;;;58.70;28.77;;;;;;;-0.65;100.00;97712.97;5096838;27;20044;-77
2021/12/24 11:08:10;;;;;;;58.60;28.75;;;;;;;-0.59;100.00;97712.72;5099711;27;20052;-71
2021/12/24 11:10:39;;;;;;;62.03;31.13;;;;;;;-0.55;100.00;97712.56;5095633;27;20052;-79
2021/12/24 11:13:11;;;;;;;55.90;27.40;;;;;;;-0.56;100.00;97708.19;5105425;28;20050;-78
2021/12/24 11:15:41;;;;;;;63.72;30.20;;;;;;;-0.57;100.00;97704.66;5105740;28;20055;-76
2021/12/24 11:18:10;;;;;;;65.25;30.60;;;;;;;-0.59;100.00;97701.22;5096853;28;20044;-80
2021/12/24 11:20:39;;;;;;;65.90;31.70;;;;;;;-0.56;100.00;97713.50;5096516;28;20046;-76
2021/12/24 11:23:09;;;;;;;66.53;32.45;;;;;;;-0.56;100.00;97706.38;5097936;27;20398;-74
2021/12/24 11:25:39;;;;;;;73.85;36.83;;;;;;;-0.59;100.00;97706.53;5099813;28;20501;-74
2021/12/24 11:28:09;;;;;;;87.60;42.13;;;;;;;-0.59;100.00;97702.09;5105033;27;20044;-76
2021/12/24 11:30:39;;;;;;;71.95;35.28;;;;;;;-0.56;100.00;97698.44;5096327;28;20504;-78
2021/12/24 11:33:07;;;;;;;90.68;46.85;;;;;;;-0.45;100.00;97682.03;5099306;28;20509;-77
2021/12/24 11:35:35;;;;;;;81.60;42.92;;;;;;;-0.51;100.00;97683.16;5095408;28;20401;-73
2021/12/24 11:38:04;;;;;;;82.90;42.53;;;;;;;-0.45;100.00;97684.69;5099538;27;20046;-77
2021/12/24 11:40:32;;;;;;;78.00;39.35;;;;;;;-0.53;100.00;97690.31;5103414;28;20040;-77
2021/12/24 11:43:03;;;;;;;87.97;39.85;;;;;;;-0.44;100.00;97697.00;5109429;27;20123;-79
2021/12/24 11:45:34;;;;;;;123.60;62.22;;;;;;;-0.40;100.00;97701.25;5093128;28;20134;-73
2021/12/24 11:48:02;;;;;;;82.35;39.35;;;;;;;-0.40;100.00;97682.69;5103728;28;20052;-78
2021/12/24 11:50:33;;;;;;;70.88;34.53;;;;;;;-0.44;100.00;97683.75;5101355;27;20058;-73
2021/12/24 11:53:11;;;;;;;65.65;33.13;;;;;;;-0.37;100.00;97663.97;5114077;27;20125;-76
2021/12/24 11:55:43;;;;;;;62.35;31.10;;;;;;;-0.41;100.00;97667.69;5097284;28;20047;-79
2021/12/24 11:58:18;;;;;;;77.85;36.65;;;;;;;-0.33;100.00;97657.56;5098953;27;20055;-74
2021/12/24 12:00:47;;;;;;;62.92;31.50;;;;;;;-0.30;100.00;97659.25;5090278;28;20181;-75
2021/12/24 12:03:32;;;;;;;68.82;32.33;;;;;;;-0.37;100.00;97666.63;5103341;27;20036;-77
2021/12/24 12:06:00;;;;;;;72.68;35.33;;;;;;;-0.37;100.00;97663.13;5099100;27;20126;-73
2021/12/24 12:08:39;;;;;;;67.50;33.20;;;;;;;-0.28;100.00;97667.13;5098165;28;20072;-73
2021/12/24 12:11:16;;;;;;;72.05;34.13;;;;;;;-0.30;100.00;97657.44;5101671;28;20489;-73
2021/12/24 12:13:47;;;;;;;66.82;33.45;;;;;;;-0.31;100.00;97658.38;5098324;28;20069;-80
2021/12/24 12:16:16;;;;;;;66.00;30.63;;;;;;;-0.25;100.00;97651.03;5095116;27;20113;-80
2021/12/24 12:19:00;;;;;;;65.78;31.23;;;;;;;-0.33;100.00;97664.69;5100950;28;20044;-75
2021/12/24 12:21:39;;;;;;;62.47;29.77;;;;;;;-0.21;100.00;97665.88;5093934;28;20044;-75
2021/12/24 12:27:00;;;;;;;94.15;44.28;;;;;;;-0.18;100.00;97673.72;5094406;28;20493;-73
2021/12/24 12:29:34;;;;;;;90.78;42.17;;;;;;;-0.23;100.00;97665.97;5106703;27;20043;-77
2021/12/24 12:32:27;;;;;;;72.75;36.95;;;;;;;-0.27;100.00;97668.81;5101559;28;20492;-75
2021/12/24 12:34:58;;;;;;;81.57;38.47;;;;;;;-0.26;100.00;97663.47;5102586;28;20040;-77
2021/12/24 12:37:28;;;;;;;79.97;38.58;;;;;;;-0.31;100.00;97661.00;5102814;28;20403;-76
2021/12/24 12:40:00;;;;;;;70.72;32.53;;;;;;;-0.17;100.00;97643.59;5093763;27;20044;-73
2021/12/24 12:43:06;;;;;;;78.47;34.63;;;;;;;-0.15;100.00;97641.75;5100035;27;20035;-73
2021/12/24 12:46:00;;;;;;;87.30;39.38;;;;;;;-0.24;100.00;97605.00;5098754;28;20051;-74
2021/12/24 12:48:48;;;;;;;80.65;38.58;;;;;;;-0.23;100.00;97620.88;5109766;28;20044;-75
2021/12/24 12:51:15;;;;;;;94.00;41.72;;;;;;;-0.25;100.00;97633.34;5094086;28;20126;-77
2021/12/24 12:53:43;;;;;;;95.78;39.88;;;;;;;-0.09;100.00;97641.44;5098096;28;20393;-77
2021/12/24 12:56:16;;;;;;;93.82;39.22;;;;;;;-0.05;100.00;97652.75;5092647;28;20052;-74